Colonsay, Canada
Current Conditions -  °F | °C
As of 5:00 PM on Thursday 18 Dec 2014 (Local Time) from CYXE Reporting Station
Haze Haze  
Wind Chill: 15°   Ceiling: 600
Heat Index: 21°   Visibility: 5mi
Dew Point: 19°   Wind: 5mph
Humidity: 93%   Direction: 320°NW
Pressure: 29.9"   Gusts: NA
Location:  51.97°N, 105.87°W
Report Text: CYXE 182300Z 32004KT 270V040 5SM BR FEW004 OVC006 M06/M07 A2990 RMK ST1ST7 SLP159
Loading
Personal Weather Stations






























Interactive Weather Map New forecast layout! Learn more

10-Day Weather Forecast

Advertisements
Track Severe Weather on mobile